Time;durP1;ratioP1;P1;durP2;ratioP2;P2;SDS_P1;SDS_P2;PMS_P1;PMS_P2;Temp;Humidity;BMP_temperature;BMP_pressure;BME280_temperature;BME280_humidity;BME280_pressure;Samples;Min_cycle;Max_cycle;Signal;HPM_P1;HPM_P2
2023/06/23 00:01:00;;;;;;;17.83;10.02;;;;;;;23.72;69.68;99891.25;3155034;28;20063;-66
2023/06/23 00:02:32;;;;;;;14.25;9.90;;;;;;;23.69;69.62;99884.38;3151739;28;20422;-66
2023/06/23 00:04:04;;;;;;;13.18;10.07;;;;;;;23.68;69.67;99890.72;3157570;28;20116;-66
2023/06/23 00:05:37;;;;;;;12.60;10.05;;;;;;;23.70;69.16;99886.13;3157429;28;20055;-66
2023/06/23 00:07:09;;;;;;;13.93;9.75;;;;;;;23.72;69.13;99889.47;3157440;28;20078;-66
2023/06/23 00:08:42;;;;;;;15.82;9.82;;;;;;;23.65;69.30;99875.06;3153321;28;20652;-66
2023/06/23 00:10:14;;;;;;;13.75;10.57;;;;;;;23.71;69.51;99890.44;3148602;28;20044;-66
2023/06/23 00:11:47;;;;;;;12.18;9.30;;;;;;;23.74;69.52;99890.13;3147701;28;20475;-66
2023/06/23 00:13:18;;;;;;;;;;;;;;;23.57;69.81;99905.06;3157484;28;20055;-66
2023/06/23 00:14:50;;;;;;;14.98;9.38;;;;;;;23.61;69.89;99898.47;3150331;28;19928;-67
2023/06/23 00:16:22;;;;;;;18.45;8.98;;;;;;;23.65;69.51;99898.16;3153386;28;20052;-66
2023/06/23 00:17:54;;;;;;;18.35;8.95;;;;;;;23.67;69.46;99897.03;3157045;28;20048;-66
2023/06/23 00:19:26;;;;;;;17.92;10.95;;;;;;;23.69;69.91;99889.72;3157419;28;20048;-66
2023/06/23 00:20:58;;;;;;;15.75;10.20;;;;;;;23.71;69.70;99890.44;3157563;28;20142;-66
2023/06/23 00:22:29;;;;;;;12.68;9.88;;;;;;;23.73;69.51;99893.78;3147826;28;20041;-66
2023/06/23 00:24:01;;;;;;;12.77;9.18;;;;;;;23.74;69.84;99883.97;3154954;28;20059;-66
2023/06/23 00:25:33;;;;;;;17.02;9.50;;;;;;;23.74;69.44;99892.78;3154535;28;20101;-66
2023/06/23 00:27:05;;;;;;;13.70;9.85;;;;;;;23.70;69.28;99891.44;3143217;28;20106;-66
2023/06/23 00:28:37;;;;;;;16.17;9.70;;;;;;;23.65;69.50;99882.22;3156284;28;20499;-66
2023/06/23 00:30:10;;;;;;;13.68;8.95;;;;;;;23.67;69.62;99889.03;3151764;28;20128;-66
2023/06/23 00:31:42;;;;;;;16.95;9.40;;;;;;;23.64;69.20;99885.88;3151069;28;20525;-66
2023/06/23 00:33:14;;;;;;;15.43;9.80;;;;;;;23.68;69.08;99888.06;3157158;28;20477;-67
2023/06/23 00:34:45;;;;;;;18.75;10.07;;;;;;;23.72;68.88;99885.94;3155311;28;20125;-66
2023/06/23 00:36:17;;;;;;;11.55;9.43;;;;;;;23.75;69.16;99891.81;3159346;28;20054;-66
2023/06/23 00:37:49;;;;;;;15.07;9.93;;;;;;;23.76;69.24;99893.47;3159410;28;20051;-66
2023/06/23 00:39:21;;;;;;;14.13;10.15;;;;;;;23.78;69.15;99893.31;3159666;28;20052;-66
2023/06/23 00:40:53;;;;;;;13.35;9.30;;;;;;;23.78;69.09;99891.53;3156103;28;20053;-65
2023/06/23 00:42:26;;;;;;;16.92;9.90;;;;;;;23.72;68.99;99881.50;3155611;28;20044;-66
2023/06/23 00:43:59;;;;;;;;;;;;;;;23.62;69.15;99886.81;3159685;28;20075;-66
2023/06/23 00:45:31;;;;;;;11.40;9.18;;;;;;;23.71;69.47;99893.09;3155224;28;19928;-65
2023/06/23 00:47:03;;;;;;;14.93;9.85;;;;;;;23.75;69.47;99883.84;3159470;28;20441;-66
2023/06/23 00:48:37;;;;;;;15.25;10.32;;;;;;;23.78;69.51;99891.53;3148947;28;20044;-65
2023/06/23 00:50:11;;;;;;;14.60;10.02;;;;;;;23.78;69.21;99896.84;3158531;28;20135;-65
2023/06/23 00:51:43;;;;;;;19.25;10.40;;;;;;;23.80;69.56;99897.50;3154487;28;20472;-65
2023/06/23 00:53:16;;;;;;;13.02;10.45;;;;;;;23.75;69.31;99878.53;3156737;28;20056;-65
2023/06/23 00:54:47;;;;;;;16.92;11.38;;;;;;;23.83;69.27;99891.03;3159572;28;20105;-65
2023/06/23 00:56:21;;;;;;;17.13;10.98;;;;;;;23.84;69.80;99888.25;3149857;28;20114;-66
2023/06/23 00:57:56;;;;;;;17.77;10.68;;;;;;;23.89;69.41;99892.25;3155528;28;20048;-65
2023/06/23 00:59:28;;;;;;;15.70;11.02;;;;;;;23.88;69.42;99885.28;3159155;28;20051;-66
2023/06/23 01:01:00;;;;;;;15.30;10.77;;;;;;;23.88;69.54;99886.13;3151865;28;20056;-66
2023/06/23 01:02:31;;;;;;;22.25;11.00;;;;;;;23.86;69.60;99890.75;3153530;28;20508;-66
2023/06/23 01:04:04;;;;;;;16.02;10.88;;;;;;;23.86;70.08;99890.75;3159425;28;20474;-66
2023/06/23 01:05:39;;;;;;;18.27;11.52;;;;;;;23.83;70.04;99894.53;3156236;28;20047;-66
2023/06/23 01:07:18;;;;;;;19.50;10.75;;;;;;;23.79;69.94;99895.84;3158846;28;20043;-66
2023/06/23 01:08:59;;;;;;;14.52;10.98;;;;;;;23.75;70.41;99890.97;3154201;28;20466;-65
2023/06/23 01:10:36;;;;;;;16.92;11.07;;;;;;;23.69;70.26;99886.22;3150276;28;20090;-65
2023/06/23 01:12:14;;;;;;;18.40;10.88;;;;;;;23.57;70.59;99872.31;3152620;28;20048;-65
2023/06/23 01:13:54;;;;;;;18.85;11.32;;;;;;;23.60;70.57;99885.31;3159326;28;20059;-65
2023/06/23 01:15:31;;;;;;;16.20;10.88;;;;;;;23.59;70.96;99883.63;3155122;28;20089;-65
2023/06/23 01:17:09;;;;;;;16.65;10.63;;;;;;;23.55;71.14;99882.28;3158724;28;20043;-66
2023/06/23 01:18:49;;;;;;;17.67;10.95;;;;;;;23.53;70.75;99882.41;3158704;28;20386;-65
2023/06/23 01:20:26;;;;;;;13.85;10.82;;;;;;;23.52;70.92;99885.25;3159076;28;20048;-65
2023/06/23 01:22:03;;;;;;;16.05;11.05;;;;;;;23.43;70.77;99873.69;3154001;28;20043;-65
2023/06/23 01:23:54;;;;;;;22.77;12.07;;;;;;;23.46;70.95;99886.69;3152215;28;20044;-65
2023/06/23 01:25:41;;;;;;;14.98;11.65;;;;;;;23.41;71.27;99880.97;3157386;28;20079;-65
2023/06/23 01:27:31;;;;;;;15.90;11.43;;;;;;;23.34;71.29;99883.41;3155998;28;20062;-66
2023/06/23 01:29:09;;;;;;;14.45;11.52;;;;;;;23.31;71.51;99882.88;3156138;28;20052;-66
2023/06/23 01:30:45;;;;;;;16.08;10.60;;;;;;;23.28;71.19;99877.81;3147638;28;20516;-65
2023/06/23 01:32:21;;;;;;;19.10;12.15;;;;;;;23.24;71.71;99871.97;3157421;28;20079;-65
2023/06/23 01:33:58;;;;;;;19.88;12.25;;;;;;;23.21;71.75;99866.13;3158178;28;20391;-66
2023/06/23 01:35:34;;;;;;;17.08;11.48;;;;;;;23.21;71.57;99866.97;3156810;28;20058;-65
2023/06/23 01:37:11;;;;;;;15.57;11.75;;;;;;;23.21;71.50;99871.44;3158815;28;20052;-65
2023/06/23 01:38:48;;;;;;;16.60;11.45;;;;;;;23.19;71.81;99868.09;3158713;28;20138;-65
2023/06/23 01:40:24;;;;;;;16.48;11.98;;;;;;;23.16;71.53;99869.25;3157696;28;20147;-66
2023/06/23 01:42:03;;;;;;;17.15;11.55;;;;;;;23.14;71.70;99865.91;3155365;28;20118;-65
2023/06/23 01:43:37;;;;;;;16.05;12.30;;;;;;;23.12;71.61;99865.19;3155562;28;20072;-66
2023/06/23 01:45:13;;;;;;;15.88;11.52;;;;;;;23.13;71.61;99869.50;3154404;28;20509;-66
2023/06/23 01:46:51;;;;;;;16.05;11.73;;;;;;;23.11;72.06;99868.84;3157844;28;20047;-65
2023/06/23 01:48:25;;;;;;;16.85;11.70;;;;;;;23.11;72.27;99877.66;3158488;28;20048;-65
2023/06/23 01:50:02;;;;;;;17.80;12.68;;;;;;;23.13;72.04;99874.81;3158665;28;20052;-65
2023/06/23 01:51:35;;;;;;;21.55;12.20;;;;;;;23.15;71.86;99881.66;3148808;28;20406;-65
2023/06/23 01:53:07;;;;;;;19.17;12.38;;;;;;;23.10;72.20;99875.13;3155489;28;20063;-65
2023/06/23 01:54:41;;;;;;;14.45;11.63;;;;;;;23.21;71.77;99882.06;3158644;28;20054;-65
2023/06/23 01:56:15;;;;;;;17.48;12.57;;;;;;;23.24;71.84;99876.47;3149944;28;20048;-65
2023/06/23 01:57:49;;;;;;;18.25;12.20;;;;;;;23.17;71.87;99866.44;3153473;28;20585;-65
2023/06/23 01:59:21;;;;;;;14.73;11.45;;;;;;;23.23;72.13;99869.47;3154117;28;20047;-65
2023/06/23 02:00:55;;;;;;;18.73;12.50;;;;;;;23.24;72.40;99868.47;3156577;28;20048;-68
2023/06/23 02:02:28;;;;;;;14.88;11.55;;;;;;;23.25;72.31;99880.78;3151563;28;20059;-68
2023/06/23 02:04:03;;;;;;;15.10;11.63;;;;;;;23.25;71.95;99881.63;3158500;28;20044;-68
2023/06/23 02:05:37;;;;;;;17.95;12.00;;;;;;;23.26;72.21;99875.31;3158261;28;20097;-68
2023/06/23 02:07:11;;;;;;;20.65;12.70;;;;;;;23.26;71.82;99877.97;3158248;28;20090;-68
2023/06/23 02:08:42;;;;;;;;;;;;;;;23.12;72.07;99874.00;3154797;28;20045;-67
2023/06/23 02:10:17;;;;;;;17.08;11.32;;;;;;;23.15;72.19;99868.38;3149255;28;19954;-68
2023/06/23 02:11:49;;;;;;;21.73;12.45;;;;;;;23.25;72.21;99876.31;3149124;28;20044;-68
2023/06/23 02:13:23;;;;;;;21.73;12.60;;;;;;;23.26;71.82;99885.13;3154096;28;20048;-68
2023/06/23 02:14:54;;;;;;;19.25;12.13;;;;;;;23.26;72.26;99883.28;3158418;28;20051;-67
2023/06/23 02:16:32;;;;;;;15.88;11.60;;;;;;;23.31;71.84;99890.84;3157958;28;20445;-67
2023/06/23 02:18:04;;;;;;;21.02;12.65;;;;;;;23.30;72.24;99887.31;3158124;28;20677;-67
2023/06/23 02:19:37;;;;;;;19.23;12.35;;;;;;;23.29;72.50;99896.28;3158468;28;20817;-67
2023/06/23 02:21:12;;;;;;;19.92;12.45;;;;;;;23.29;72.09;99892.78;3157145;28;20491;-67
2023/06/23 02:22:45;;;;;;;22.30;11.50;;;;;;;23.28;72.44;99896.41;3146887;28;20048;-67
2023/06/23 02:24:18;;;;;;;22.08;12.98;;;;;;;23.26;72.34;99893.94;3157398;28;20556;-67
2023/06/23 02:25:51;;;;;;;19.83;12.88;;;;;;;23.26;72.24;99893.09;3152967;28;20142;-67
2023/06/23 02:27:23;;;;;;;17.60;12.90;;;;;;;23.17;72.19;99885.03;3153568;28;20275;-67
2023/06/23 02:28:55;;;;;;;17.98;13.20;;;;;;;23.24;72.46;99897.72;3145456;28;20052;-67
2023/06/23 02:30:28;;;;;;;17.80;12.95;;;;;;;23.24;72.46;99893.22;3146293;28;20805;-67
2023/06/23 02:32:01;;;;;;;19.95;12.60;;;;;;;23.24;72.10;99893.22;3153935;28;20054;-67
2023/06/23 02:33:33;;;;;;;18.25;12.20;;;;;;;23.25;72.08;99899.38;3157736;28;20070;-67
2023/06/23 02:35:08;;;;;;;19.85;13.32;;;;;;;23.26;72.47;99896.59;3154599;28;20054;-67
2023/06/23 02:36:46;;;;;;;19.80;14.43;;;;;;;23.25;71.79;99900.22;3157899;28;20131;-69
2023/06/23 02:38:22;;;;;;;17.67;13.60;;;;;;;23.23;72.17;99907.50;3158208;28;20072;-68
2023/06/23 02:39:58;;;;;;;17.85;12.77;;;;;;;23.19;71.97;99906.16;3157483;28;20055;-68
2023/06/23 02:41:33;;;;;;;24.05;14.27;;;;;;;23.22;72.03;99910.28;3151829;28;20048;-68
2023/06/23 02:43:14;;;;;;;24.98;14.02;;;;;;;23.20;72.29;99906.97;3153111;28;20047;-68
2023/06/23 02:44:50;;;;;;;20.65;13.75;;;;;;;23.13;72.47;99904.03;3157738;28;20056;-68
2023/06/23 02:46:25;;;;;;;22.08;13.98;;;;;;;23.12;72.24;99905.03;3157722;28;20072;-66
2023/06/23 02:47:59;;;;;;;17.98;13.57;;;;;;;23.08;72.85;99899.19;3152866;28;20052;-67
2023/06/23 02:49:32;;;;;;;18.52;13.13;;;;;;;23.07;72.43;99915.25;3150621;28;20155;-67
2023/06/23 02:51:04;;;;;;;;;;;;;;;22.86;72.96;99913.63;3158279;28;20098;-67
2023/06/23 02:52:38;;;;;;;19.17;13.80;;;;;;;22.92;72.83;99912.22;3158189;28;20086;-67
2023/06/23 02:54:14;;;;;;;18.77;14.48;;;;;;;23.00;72.84;99916.84;3157700;28;20052;-67
2023/06/23 02:55:48;;;;;;;20.85;14.77;;;;;;;22.91;72.64;99894.63;3156802;28;20505;-67
2023/06/23 02:57:22;;;;;;;20.60;14.43;;;;;;;22.91;72.52;99906.06;3149960;28;20051;-67
2023/06/23 02:59:01;;;;;;;24.95;14.75;;;;;;;23.02;72.44;99906.91;3148284;28;20083;-67
2023/06/23 03:00:37;;;;;;;20.92;15.10;;;;;;;23.03;72.90;99919.22;3157705;28;20059;-67
2023/06/23 03:02:09;;;;;;;22.13;14.68;;;;;;;22.96;72.38;99904.84;3148041;28;20060;-67
2023/06/23 03:03:43;;;;;;;19.15;14.23;;;;;;;23.04;72.53;99918.22;3157545;28;20055;-67
2023/06/23 03:05:16;;;;;;;19.65;13.43;;;;;;;23.05;72.79;99920.75;3157923;28;20044;-66
2023/06/23 03:06:48;;;;;;;24.90;13.90;;;;;;;23.05;72.76;99920.75;3157851;28;20543;-66
2023/06/23 03:08:20;;;;;;;22.65;14.13;;;;;;;23.05;72.66;99917.25;3157101;28;20051;-66
2023/06/23 03:09:52;;;;;;;18.40;13.85;;;;;;;23.06;72.47;99925.06;3153938;28;20052;-67
2023/06/23 03:11:23;;;;;;;20.40;14.52;;;;;;;23.04;72.39;99916.41;3148317;28;20439;-66
2023/06/23 03:12:55;;;;;;;20.58;13.88;;;;;;;23.02;72.67;99922.84;3157240;28;20067;-66
2023/06/23 03:14:26;;;;;;;21.20;14.45;;;;;;;22.99;72.39;99915.19;3157613;28;20051;-66
2023/06/23 03:16:03;;;;;;;21.75;14.40;;;;;;;23.00;72.12;99911.53;3157661;28;20139;-66
2023/06/23 03:17:37;;;;;;;23.08;14.30;;;;;;;22.88;72.91;99914.34;3155390;28;20070;-65
2023/06/23 03:19:20;;;;;;;24.95;15.85;;;;;;;22.77;72.84;99917.16;3157457;28;20076;-66
2023/06/23 03:20:53;;;;;;;27.52;16.17;;;;;;;22.65;73.58;99921.81;3157306;28;20807;-68
2023/06/23 03:22:29;;;;;;;29.80;16.00;;;;;;;22.60;73.85;99915.28;3148670;28;20055;-67
2023/06/23 03:24:06;;;;;;;22.85;14.45;;;;;;;22.53;73.78;99924.78;3154667;28;20055;-67
2023/06/23 03:25:41;;;;;;;21.33;14.48;;;;;;;22.51;74.04;99926.72;3153710;28;20052;-67
2023/06/23 03:27:15;;;;;;;25.42;15.45;;;;;;;22.44;74.29;99927.31;3153472;28;20070;-68
2023/06/23 03:28:48;;;;;;;24.70;15.52;;;;;;;22.41;74.65;99922.28;3157097;28;20047;-65
2023/06/23 03:30:23;;;;;;;;;;;;;;;22.18;74.93;99918.25;3150920;28;20049;-64
2023/06/23 03:31:59;;;;;;;19.30;14.23;;;;;;;22.25;75.28;99924.69;3156610;28;19920;-65
2023/06/23 03:33:33;;;;;;;26.30;15.80;;;;;;;22.30;75.13;99918.94;3156896;28;20105;-65
2023/06/23 03:35:11;;;;;;;21.35;15.23;;;;;;;22.31;75.28;99920.66;3146796;28;20059;-66
2023/06/23 03:36:44;;;;;;;23.33;15.10;;;;;;;22.32;75.59;99915.19;3154793;28;20167;-66
2023/06/23 03:38:18;;;;;;;21.40;15.68;;;;;;;22.34;75.19;99917.72;3157570;28;20543;-66
2023/06/23 03:39:55;;;;;;;24.55;15.55;;;;;;;22.35;75.02;99914.91;3157411;28;20040;-66
2023/06/23 03:41:29;;;;;;;21.30;15.63;;;;;;;22.32;75.33;99914.34;3147296;28;20177;-67
2023/06/23 03:43:07;;;;;;;23.60;14.70;;;;;;;22.33;75.44;99916.00;3148424;28;20479;-68
2023/06/23 03:44:42;;;;;;;29.13;16.00;;;;;;;22.28;75.86;99919.09;3152718;28;20048;-68
2023/06/23 03:46:19;;;;;;;27.48;15.48;;;;;;;22.28;75.93;99928.88;3157325;28;20437;-66
2023/06/23 03:47:56;;;;;;;22.17;15.43;;;;;;;22.22;75.96;99917.84;3157198;28;20036;-66
2023/06/23 03:49:34;;;;;;;27.17;17.05;;;;;;;22.18;76.26;99915.59;3156884;28;20697;-66
2023/06/23 03:51:09;;;;;;;18.75;15.20;;;;;;;22.18;76.38;99923.56;3145894;28;20052;-66
2023/06/23 03:52:45;;;;;;;24.33;14.75;;;;;;;22.15;76.49;99918.50;3147701;28;20454;-66
2023/06/23 03:54:21;;;;;;;25.35;15.77;;;;;;;22.20;76.42;99927.75;3146332;28;20057;-71
2023/06/23 03:55:56;;;;;;;21.85;16.38;;;;;;;22.23;76.46;99934.59;3149742;28;20044;-70
2023/06/23 03:57:31;;;;;;;38.38;26.05;;;;;;;22.28;76.20;99944.81;3144864;28;20053;-70
2023/06/23 03:59:04;;;;;;;27.10;17.25;;;;;;;22.33;76.33;99945.19;3157334;28;20141;-71
2023/06/23 04:00:41;;;;;;;20.23;14.55;;;;;;;22.39;76.03;99941.97;3157296;28;20082;-69
2023/06/23 04:02:17;;;;;;;21.92;14.73;;;;;;;22.41;75.62;99938.22;3133301;28;20053;-71
2023/06/23 04:03:51;;;;;;;32.60;21.85;;;;;;;22.43;75.73;99936.25;3157226;28;20108;-69
2023/06/23 04:05:26;;;;;;;25.33;18.15;;;;;;;22.48;75.60;99930.53;3156773;28;20109;-69
2023/06/23 04:07:00;;;;;;;23.13;15.02;;;;;;;22.51;75.35;99932.91;3157361;28;20052;-69
2023/06/23 04:08:34;;;;;;;22.83;15.38;;;;;;;22.48;74.96;99927.88;3155907;28;20052;-69
2023/06/23 04:10:08;;;;;;;26.92;14.80;;;;;;;22.52;74.77;99937.22;3157084;28;20048;-68
2023/06/23 04:11:42;;;;;;;22.83;14.45;;;;;;;22.53;74.90;99935.41;3148568;28;20068;-67
2023/06/23 04:13:15;;;;;;;21.25;15.23;;;;;;;22.43;74.93;99920.34;3159925;28;20120;-67
2023/06/23 04:14:50;;;;;;;20.52;13.77;;;;;;;22.51;74.82;99932.91;3160072;28;20540;-68
2023/06/23 04:16:22;;;;;;;21.13;13.23;;;;;;;22.53;74.62;99932.75;3139867;28;20728;-67
2023/06/23 04:17:56;;;;;;;20.45;15.00;;;;;;;22.53;74.34;99924.78;3147159;28;20131;-65
2023/06/23 04:19:29;;;;;;;18.80;13.10;;;;;;;22.49;74.48;99929.53;3159466;28;20052;-69
2023/06/23 04:21:03;;;;;;;18.42;13.82;;;;;;;22.54;74.69;99937.06;3155351;28;20047;-67
2023/06/23 04:22:39;;;;;;;34.10;16.15;;;;;;;22.59;74.03;99938.31;3144295;28;20052;-69
2023/06/23 04:24:14;;;;;;;21.13;13.60;;;;;;;22.62;73.98;99935.38;3151766;28;20121;-69
2023/06/23 04:25:49;;;;;;;18.77;14.10;;;;;;;22.60;73.92;99923.25;3148095;28;20105;-74
2023/06/23 04:27:22;;;;;;;23.40;14.52;;;;;;;22.67;73.51;99934.94;3142815;28;20110;-73
2023/06/23 04:28:54;;;;;;;;;;;;;;;22.47;73.84;99939.47;3152174;28;20052;-70
2023/06/23 04:30:28;;;;;;;20.30;12.93;;;;;;;22.53;73.63;99941.53;3146484;28;20263;-71
2023/06/23 04:32:01;;;;;;;25.52;13.93;;;;;;;22.57;73.88;99936.78;3150418;28;20509;-72
2023/06/23 04:33:33;;;;;;;21.48;14.32;;;;;;;22.57;73.82;99932.34;3152706;28;20048;-73
2023/06/23 04:35:06;;;;;;;23.70;14.82;;;;;;;22.64;73.57;99933.41;3151056;28;20555;-76
2023/06/23 04:36:44;;;;;;;57.08;28.40;;;;;;;22.71;73.30;99933.66;3154311;28;20055;-75
2023/06/23 04:38:23;;;;;;;24.75;15.45;;;;;;;22.70;73.04;99924.03;3154073;28;20046;-72
2023/06/23 04:39:59;;;;;;;24.67;14.00;;;;;;;22.77;72.56;99930.44;3149356;28;20127;-70
2023/06/23 04:41:34;;;;;;;22.30;14.63;;;;;;;22.84;72.49;99931.56;3140946;28;20055;-68
2023/06/23 04:43:12;;;;;;;67.65;42.90;;;;;;;22.87;72.37;99931.25;3141458;28;20478;-72
2023/06/23 04:44:51;;;;;;;23.75;14.43;;;;;;;22.92;72.45;99938.78;3142811;28;20071;-71
2023/06/23 04:46:26;;;;;;;27.13;17.23;;;;;;;22.96;72.41;99932.25;3150653;28;20048;-71
2023/06/23 04:48:04;;;;;;;24.02;14.27;;;;;;;22.97;72.38;99927.75;3147794;28;20457;-72
2023/06/23 04:49:40;;;;;;;21.63;14.50;;;;;;;23.04;72.27;99932.34;3154149;28;20056;-73
2023/06/23 04:51:16;;;;;;;20.60;13.98;;;;;;;22.91;71.77;99918.53;3148070;28;20088;-72
2023/06/23 04:52:53;;;;;;;21.95;13.20;;;;;;;23.09;71.32;99937.22;3153941;28;20129;-69
2023/06/23 04:54:38;;;;;;;20.75;12.73;;;;;;;23.08;71.49;99943.53;3143434;28;20549;-71
2023/06/23 04:56:15;;;;;;;21.63;12.77;;;;;;;23.09;71.30;99945.19;3141287;28;20532;-72
2023/06/23 04:59:48;;;;;;;22.65;13.77;;;;;;;23.09;71.32;99948.66;3139854;28;20517;-69
2023/06/23 05:01:37;;;;;;;19.17;13.63;;;;;;;23.12;71.05;99947.53;3151318;28;20058;-67
2023/06/23 05:03:22;;;;;;;20.35;13.63;;;;;;;23.20;70.61;99950.31;3138055;28;20234;-69
2023/06/23 05:04:57;;;;;;;19.00;12.75;;;;;;;23.25;70.48;99945.41;3139371;28;20048;-69
2023/06/23 05:06:32;;;;;;;22.85;13.02;;;;;;;23.33;70.14;99940.16;3153949;28;20067;-70
2023/06/23 05:08:06;;;;;;;19.48;13.82;;;;;;;23.43;70.12;99949.94;3151032;28;20865;-68
2023/06/23 05:09:43;;;;;;;20.48;13.90;;;;;;;23.52;70.39;99955.19;3149914;28;20163;-67
2023/06/23 05:11:17;;;;;;;23.73;12.45;;;;;;;23.57;70.00;99944.09;3136827;28;20117;-67
2023/06/23 05:12:51;;;;;;;19.08;13.07;;;;;;;23.64;69.79;99947.84;3153447;28;20052;-68
2023/06/23 05:14:26;;;;;;;18.02;12.48;;;;;;;23.71;69.52;99946.28;3148082;28;20049;-67
2023/06/23 05:15:59;;;;;;;20.48;13.38;;;;;;;23.76;69.03;99938.69;3151674;28;20139;-67
2023/06/23 05:17:35;;;;;;;22.17;12.82;;;;;;;23.84;69.03;99940.59;3152036;28;20170;-67
2023/06/23 05:19:10;;;;;;;18.63;12.43;;;;;;;23.88;68.50;99939.31;3153555;28;20052;-67
2023/06/23 05:20:44;;;;;;;16.00;12.20;;;;;;;23.93;68.09;99942.34;3152994;28;20059;-67
2023/06/23 05:22:22;;;;;;;17.60;12.27;;;;;;;23.99;67.74;99948.88;3146033;28;20095;-67
2023/06/23 05:23:57;;;;;;;17.73;11.70;;;;;;;24.04;67.89;99949.25;3149080;28;20659;-67
2023/06/23 05:25:32;;;;;;;17.13;11.63;;;;;;;24.10;67.29;99948.63;3151592;28;20131;-68
2023/06/23 05:27:08;;;;;;;17.00;11.43;;;;;;;24.15;67.01;99951.69;3148764;28;20062;-68
2023/06/23 05:28:43;;;;;;;16.30;12.23;;;;;;;24.19;66.59;99950.38;3143019;28;20051;-68
2023/06/23 05:30:18;;;;;;;18.52;12.13;;;;;;;24.24;66.08;99953.41;3148108;28;20330;-69
2023/06/23 05:31:51;;;;;;;17.80;11.85;;;;;;;24.26;65.96;99951.44;3153198;28;20060;-66
2023/06/23 05:33:25;;;;;;;21.02;12.02;;;;;;;24.33;65.74;99953.50;3153256;28;20055;-68
2023/06/23 05:35:01;;;;;;;16.90;12.30;;;;;;;24.37;65.49;99944.19;3149630;28;20048;-68
2023/06/23 05:36:36;;;;;;;13.70;11.10;;;;;;;24.41;65.35;99945.59;3149506;28;20091;-70
2023/06/23 05:38:10;;;;;;;17.40;11.05;;;;;;;24.48;64.94;99946.66;3145771;28;20044;-68
2023/06/23 05:39:44;;;;;;;17.42;11.38;;;;;;;24.58;65.04;99941.22;3153111;28;20063;-67
2023/06/23 05:41:18;;;;;;;21.27;12.00;;;;;;;24.71;64.39;99947.81;3144979;28;20056;-68
2023/06/23 05:42:50;;;;;;;20.50;11.32;;;;;;;24.81;64.54;99946.88;3149555;28;20055;-68
2023/06/23 05:44:22;;;;;;;19.13;12.57;;;;;;;24.86;64.13;99940.06;3153367;28;20083;-68
2023/06/23 05:45:56;;;;;;;16.13;11.13;;;;;;;24.91;63.70;99942.28;3152872;28;20551;-66
2023/06/23 05:47:32;;;;;;;24.52;11.98;;;;;;;24.96;63.63;99950.59;3147814;28;20044;-67
2023/06/23 05:49:09;;;;;;;19.13;11.75;;;;;;;25.01;63.26;99945.66;3152800;28;20128;-67
2023/06/23 05:50:43;;;;;;;20.50;12.07;;;;;;;25.05;63.19;99946.16;3147257;28;20099;-66
2023/06/23 05:52:19;;;;;;;18.58;13.07;;;;;;;25.07;62.89;99946.84;3141293;28;20532;-66
2023/06/23 05:53:56;;;;;;;19.20;12.27;;;;;;;25.06;62.46;99946.00;3140523;28;20422;-67
2023/06/23 05:55:30;;;;;;;19.45;11.98;;;;;;;25.10;62.59;99944.69;3145004;28;20117;-67
2023/06/23 05:57:05;;;;;;;17.55;12.30;;;;;;;25.13;61.94;99939.06;3146029;28;20079;-67
2023/06/23 05:58:41;;;;;;;22.05;13.00;;;;;;;25.12;61.92;99940.03;3146604;28;20135;-68
2023/06/23 06:00:16;;;;;;;19.90;12.82;;;;;;;25.13;62.09;99939.06;3153081;28;20074;-67
2023/06/23 06:01:51;;;;;;;17.40;12.07;;;;;;;25.17;61.72;99947.56;3153153;28;20062;-67
2023/06/23 06:03:29;;;;;;;23.13;11.68;;;;;;;25.19;61.89;99946.44;3152786;28;20101;-67
2023/06/23 06:05:05;;;;;;;16.48;11.70;;;;;;;25.17;61.71;99945.78;3152856;28;20291;-68
2023/06/23 06:06:39;;;;;;;18.38;11.60;;;;;;;25.19;61.21;99957.09;3153089;28;20699;-68
2023/06/23 06:08:12;;;;;;;17.17;11.88;;;;;;;25.23;61.33;99948.75;3148633;28;20152;-68
2023/06/23 06:09:46;;;;;;;25.25;12.52;;;;;;;25.27;61.02;99950.13;3134927;28;20079;-69
2023/06/23 06:11:21;;;;;;;15.48;11.75;;;;;;;25.33;61.00;99942.31;3147544;28;20205;-67
2023/06/23 06:12:56;;;;;;;17.70;11.23;;;;;;;25.39;60.56;99949.66;3152332;28;20062;-68
2023/06/23 06:14:31;;;;;;;14.93;11.27;;;;;;;25.48;60.58;99947.03;3142492;28;20091;-67
2023/06/23 06:16:06;;;;;;;15.00;11.40;;;;;;;25.58;60.03;99940.56;3152937;28;20056;-68
2023/06/23 06:17:40;;;;;;;15.18;11.02;;;;;;;25.70;59.54;99945.59;3153009;28;20056;-68
2023/06/23 06:19:15;;;;;;;13.25;10.60;;;;;;;25.70;58.91;99937.59;3152992;28;20051;-68
2023/06/23 06:20:49;;;;;;;16.95;11.05;;;;;;;25.83;58.70;99946.00;3152980;28;20083;-68
2023/06/23 06:22:22;;;;;;;15.90;11.20;;;;;;;25.87;58.71;99945.47;3144513;28;20139;-68
2023/06/23 06:23:58;;;;;;;24.55;13.00;;;;;;;25.90;58.35;99939.00;3152296;28;20084;-68
2023/06/23 06:25:30;;;;;;;16.05;11.15;;;;;;;25.95;58.34;99942.00;3151737;28;20055;-68
2023/06/23 06:27:06;;;;;;;14.60;10.45;;;;;;;26.03;58.14;99941.16;3152101;28;20051;-69
2023/06/23 06:28:40;;;;;;;14.88;11.20;;;;;;;26.11;58.32;99938.50;3152786;28;20052;-68
2023/06/23 06:30:15;;;;;;;19.92;11.75;;;;;;;26.22;58.05;99948.84;3158003;28;20079;-67
2023/06/23 06:31:53;;;;;;;25.27;13.13;;;;;;;26.35;57.92;99947.50;3157909;28;20052;-67
2023/06/23 06:33:33;;;;;;;18.02;11.70;;;;;;;26.45;57.86;99945.53;3156075;28;20070;-68
2023/06/23 06:35:26;;;;;;;18.48;10.95;;;;;;;26.57;57.43;99946.03;3155032;28;20044;-68
2023/06/23 06:37:04;;;;;;;20.95;11.00;;;;;;;26.70;57.05;99943.66;3157418;28;20105;-69
2023/06/23 06:38:55;;;;;;;19.20;12.05;;;;;;;26.63;56.56;99929.34;3154699;28;20528;-70
2023/06/23 06:42:45;;;;;;;16.35;10.95;;;;;;;26.57;56.50;99928.16;3144912;28;20052;-70
2023/06/23 06:46:36;;;;;;;20.80;11.40;;;;;;;26.62;56.54;99941.00;3148604;28;20062;-70
2023/06/23 06:48:19;;;;;;;14.45;11.00;;;;;;;26.71;56.71;99937.31;3134156;28;20601;-68
2023/06/23 06:50:01;;;;;;;21.02;10.75;;;;;;;26.83;56.46;99932.44;3157745;28;20059;-69
2023/06/23 06:52:03;;;;;;;17.70;11.43;;;;;;;26.97;56.02;99929.88;3146537;28;20140;-69
2023/06/23 06:53:36;;;;;;;17.50;10.93;;;;;;;27.11;55.65;99928.34;3154420;28;20048;-68
2023/06/23 06:55:14;;;;;;;15.27;11.18;;;;;;;27.23;54.66;99935.00;3157802;28;20044;-70
2023/06/23 06:56:47;;;;;;;17.73;10.77;;;;;;;27.33;54.35;99924.13;3148130;28;20067;-69
2023/06/23 06:58:19;;;;;;;14.82;10.55;;;;;;;27.43;54.39;99922.03;3151754;28;20094;-70
2023/06/23 06:59:53;;;;;;;14.82;10.90;;;;;;;27.52;54.40;99925.50;3157527;28;20109;-68
2023/06/23 07:01:26;;;;;;;13.85;10.70;;;;;;;27.55;54.16;99925.16;3157225;28;20055;-67
2023/06/23 07:02:59;;;;;;;17.23;11.52;;;;;;;27.57;53.77;99923.16;3156422;28;20051;-68
2023/06/23 07:04:31;;;;;;;20.73;11.52;;;;;;;27.57;53.43;99925.00;3157473;28;20511;-67
2023/06/23 07:06:03;;;;;;;16.40;10.88;;;;;;;27.56;53.69;99929.50;3155928;28;20054;-68
2023/06/23 07:07:35;;;;;;;23.60;12.25;;;;;;;27.56;53.31;99923.31;3148525;28;20044;-68
2023/06/23 07:09:08;;;;;;;20.05;11.68;;;;;;;27.54;53.37;99922.63;3149889;28;20110;-67
2023/06/23 07:10:40;;;;;;;16.35;11.05;;;;;;;27.58;53.24;99919.44;3153259;28;20049;-68
2023/06/23 07:12:12;;;;;;;16.98;10.00;;;;;;;27.61;53.16;99923.63;3155797;28;20062;-69
2023/06/23 07:13:45;;;;;;;22.23;12.50;;;;;;;27.61;52.91;99926.28;3157574;28;20056;-68
2023/06/23 07:15:18;;;;;;;14.38;11.18;;;;;;;27.64;53.06;99923.25;3157920;28;20250;-69
2023/06/23 07:16:50;;;;;;;17.42;11.68;;;;;;;27.69;52.72;99923.56;3156989;28;20544;-69
2023/06/23 07:18:24;;;;;;;17.77;11.80;;;;;;;27.75;52.82;99919.38;3156904;28;20078;-67
2023/06/23 07:19:56;;;;;;;19.85;11.27;;;;;;;27.84;52.78;99924.50;3157393;28;20084;-67
2023/06/23 07:21:28;;;;;;;18.33;12.10;;;;;;;27.87;52.35;99931.34;3156378;28;20105;-67
2023/06/23 07:23:00;;;;;;;21.92;11.70;;;;;;;27.88;52.14;99933.81;3145737;28;20052;-66
2023/06/23 07:24:32;;;;;;;24.73;12.90;;;;;;;27.86;51.82;99922.50;3157060;28;20051;-66